sensor_id;sensor_type;location;lat;lon;timestamp;pressure;altitude;pressure_sealevel;temperature;humidity
64298;BME280;50639;53.270;7.956;2023-04-15T00:00:06;101101.13;;;5.82;78.41
64298;BME280;50639;53.270;7.956;2023-04-15T00:02:38;101091.66;;;5.80;77.59
64298;BME280;50639;53.270;7.956;2023-04-15T00:05:04;101098.31;;;5.84;77.63
64298;BME280;50639;53.270;7.956;2023-04-15T00:07:30;101083.13;;;5.68;78.25
64298;BME280;50639;53.270;7.956;2023-04-15T00:09:57;101085.97;;;5.75;77.45
64298;BME280;50639;53.270;7.956;2023-04-15T00:12:23;101097.41;;;5.75;77.79
64298;BME280;50639;53.270;7.956;2023-04-15T00:14:49;101092.41;;;5.72;78.69
64298;BME280;50639;53.270;7.956;2023-04-15T00:17:15;101098.72;;;5.71;78.29
64298;BME280;50639;53.270;7.956;2023-04-15T00:19:42;101100.34;;;5.72;78.00
64298;BME280;50639;53.270;7.956;2023-04-15T00:22:09;101091.91;;;5.68;77.58
64298;BME280;50639;53.270;7.956;2023-04-15T00:24:34;101098.88;;;5.70;77.92
64298;BME280;50639;53.270;7.956;2023-04-15T00:27:00;101063.59;;;5.51;77.04
64298;BME280;50639;53.270;7.956;2023-04-15T00:29:25;101093.16;;;5.64;78.41
64298;BME280;50639;53.270;7.956;2023-04-15T00:31:51;101085.97;;;5.57;77.89
64298;BME280;50639;53.270;7.956;2023-04-15T00:34:16;101098.78;;;5.61;78.16
64298;BME280;50639;53.270;7.956;2023-04-15T00:36:42;101086.97;;;5.56;78.95
64298;BME280;50639;53.270;7.956;2023-04-15T00:39:08;101091.00;;;5.60;79.65
64298;BME280;50639;53.270;7.956;2023-04-15T00:41:34;101081.50;;;5.57;78.41
64298;BME280;50639;53.270;7.956;2023-04-15T00:44:05;101091.81;;;5.60;78.30
64298;BME280;50639;53.270;7.956;2023-04-15T00:46:32;101086.31;;;5.54;79.26
64298;BME280;50639;53.270;7.956;2023-04-15T00:48:59;101089.94;;;5.53;79.21
64298;BME280;50639;53.270;7.956;2023-04-15T00:51:26;101094.97;;;5.46;79.78
64298;BME280;50639;53.270;7.956;2023-04-15T00:53:51;101092.50;;;5.45;80.38
64298;BME280;50639;53.270;7.956;2023-04-15T00:56:19;101092.78;;;5.42;80.10
64298;BME280;50639;53.270;7.956;2023-04-15T00:58:47;101082.06;;;5.43;79.91
64298;BME280;50639;53.270;7.956;2023-04-15T01:01:12;101090.91;;;5.52;79.28
64298;BME280;50639;53.270;7.956;2023-04-15T01:03:38;101093.72;;;5.50;80.16
64298;BME280;50639;53.270;7.956;2023-04-15T01:06:04;101093.50;;;5.44;80.38
64298;BME280;50639;53.270;7.956;2023-04-15T01:08:30;101081.97;;;5.35;81.06
64298;BME280;50639;53.270;7.956;2023-04-15T01:10:57;101086.13;;;5.38;80.88
64298;BME280;50639;53.270;7.956;2023-04-15T01:13:24;101094.25;;;5.36;81.88
64298;BME280;50639;53.270;7.956;2023-04-15T01:15:52;101095.72;;;5.39;81.63
64298;BME280;50639;53.270;7.956;2023-04-15T01:18:18;101100.06;;;5.40;79.86
64298;BME280;50639;53.270;7.956;2023-04-15T01:20:44;101091.41;;;5.38;80.05
64298;BME280;50639;53.270;7.956;2023-04-15T01:23:10;101096.28;;;5.42;80.78
64298;BME280;50639;53.270;7.956;2023-04-15T01:25:35;101090.59;;;5.37;81.39
64298;BME280;50639;53.270;7.956;2023-04-15T01:28:01;101096.44;;;5.41;80.50
64298;BME280;50639;53.270;7.956;2023-04-15T01:30:27;101095.88;;;5.37;80.50
64298;BME280;50639;53.270;7.956;2023-04-15T01:32:54;101088.25;;;5.34;80.88
64298;BME280;50639;53.270;7.956;2023-04-15T01:35:19;101090.69;;;5.27;79.82
64298;BME280;50639;53.270;7.956;2023-04-15T01:37:45;101094.69;;;5.32;80.21
64298;BME280;50639;53.270;7.956;2023-04-15T01:40:11;101087.03;;;5.28;81.15
64298;BME280;50639;53.270;7.956;2023-04-15T01:42:38;101089.28;;;5.23;81.20
64298;BME280;50639;53.270;7.956;2023-04-15T01:45:04;101096.94;;;5.26;80.75
64298;BME280;50639;53.270;7.956;2023-04-15T01:47:30;101083.72;;;5.26;81.90
64298;BME280;50639;53.270;7.956;2023-04-15T01:49:56;101084.53;;;5.27;82.11
64298;BME280;50639;53.270;7.956;2023-04-15T01:52:21;101086.19;;;5.28;81.65
64298;BME280;50639;53.270;7.956;2023-04-15T01:54:47;101085.13;;;5.21;83.59
64298;BME280;50639;53.270;7.956;2023-04-15T01:57:13;101071.72;;;5.22;82.72
64298;BME280;50639;53.270;7.956;2023-04-15T01:59:38;101084.84;;;5.24;82.60
64298;BME280;50639;53.270;7.956;2023-04-15T02:02:04;101084.59;;;5.17;82.39
64298;BME280;50639;53.270;7.956;2023-04-15T02:04:29;101087.91;;;5.19;83.55
64298;BME280;50639;53.270;7.956;2023-04-15T02:06:58;101084.75;;;5.16;83.70
64298;BME280;50639;53.270;7.956;2023-04-15T02:09:24;101074.75;;;5.10;84.37
64298;BME280;50639;53.270;7.956;2023-04-15T02:11:50;101076.84;;;5.06;84.86
64298;BME280;50639;53.270;7.956;2023-04-15T02:14:17;101073.84;;;5.01;83.90
64298;BME280;50639;53.270;7.956;2023-04-15T02:16:42;101083.88;;;4.98;83.98
64298;BME280;50639;53.270;7.956;2023-04-15T02:19:07;101075.09;;;4.97;84.53
64298;BME280;50639;53.270;7.956;2023-04-15T02:21:36;101071.75;;;4.95;83.60
64298;BME280;50639;53.270;7.956;2023-04-15T02:24:01;101076.06;;;4.96;83.96
64298;BME280;50639;53.270;7.956;2023-04-15T02:26:29;101092.94;;;4.95;83.92
64298;BME280;50639;53.270;7.956;2023-04-15T02:28:56;101091.41;;;4.92;83.36
64298;BME280;50639;53.270;7.956;2023-04-15T02:31:22;101090.34;;;4.85;84.33
64298;BME280;50639;53.270;7.956;2023-04-15T02:33:47;101089.66;;;4.83;84.05
64298;BME280;50639;53.270;7.956;2023-04-15T02:36:13;101095.94;;;4.82;83.33
64298;BME280;50639;53.270;7.956;2023-04-15T02:38:38;101097.06;;;4.80;83.72
64298;BME280;50639;53.270;7.956;2023-04-15T02:41:10;101103.31;;;4.79;83.32
64298;BME280;50639;53.270;7.956;2023-04-15T02:43:36;101103.31;;;4.79;82.77
64298;BME280;50639;53.270;7.956;2023-04-15T02:46:04;101097.19;;;4.78;83.57
64298;BME280;50639;53.270;7.956;2023-04-15T02:48:30;101112.38;;;4.76;83.45
64298;BME280;50639;53.270;7.956;2023-04-15T02:53:37;101107.13;;;4.67;84.08
64298;BME280;50639;53.270;7.956;2023-04-15T02:56:03;101108.78;;;4.68;84.33
64298;BME280;50639;53.270;7.956;2023-04-15T02:58:28;101107.66;;;4.80;85.16
64298;BME280;50639;53.270;7.956;2023-04-15T03:00:54;101110.78;;;4.93;84.33
64298;BME280;50639;53.270;7.956;2023-04-15T03:03:19;101102.78;;;5.03;84.72
64298;BME280;50639;53.270;7.956;2023-04-15T03:05:45;101101.94;;;5.02;84.00
64298;BME280;50639;53.270;7.956;2023-04-15T03:08:11;101103.47;;;5.05;84.34
64298;BME280;50639;53.270;7.956;2023-04-15T03:10:36;101099.16;;;5.04;82.96
64298;BME280;50639;53.270;7.956;2023-04-15T03:13:02;101095.16;;;5.00;83.52
64298;BME280;50639;53.270;7.956;2023-04-15T03:15:27;101100.63;;;4.88;84.78
64298;BME280;50639;53.270;7.956;2023-04-15T03:17:53;101097.75;;;4.82;85.68
64298;BME280;50639;53.270;7.956;2023-04-15T03:20:19;101095.53;;;4.77;87.08
64298;BME280;50639;53.270;7.956;2023-04-15T03:22:46;101095.38;;;4.79;86.92
64298;BME280;50639;53.270;7.956;2023-04-15T03:25:11;101099.72;;;4.80;87.27
64298;BME280;50639;53.270;7.956;2023-04-15T03:27:37;101104.72;;;4.83;86.43
64298;BME280;50639;53.270;7.956;2023-04-15T03:30:03;101100.91;;;4.85;86.97
64298;BME280;50639;53.270;7.956;2023-04-15T03:32:31;101097.16;;;4.88;86.18
64298;BME280;50639;53.270;7.956;2023-04-15T03:34:57;101100.34;;;4.91;86.61
64298;BME280;50639;53.270;7.956;2023-04-15T03:37:22;101097.72;;;4.91;86.85
64298;BME280;50639;53.270;7.956;2023-04-15T03:39:47;101099.22;;;4.94;86.25
64298;BME280;50639;53.270;7.956;2023-04-15T03:42:13;101096.66;;;5.02;86.35
64298;BME280;50639;53.270;7.956;2023-04-15T03:44:38;101090.66;;;5.10;85.57
64298;BME280;50639;53.270;7.956;2023-04-15T03:47:04;101095.81;;;5.02;85.25
64298;BME280;50639;53.270;7.956;2023-04-15T03:49:29;101088.06;;;5.00;85.32
64298;BME280;50639;53.270;7.956;2023-04-15T03:51:55;101091.41;;;4.92;86.38
64298;BME280;50639;53.270;7.956;2023-04-15T03:54:20;101091.41;;;4.92;86.42
64298;BME280;50639;53.270;7.956;2023-04-15T03:56:46;101092.78;;;4.97;85.20
64298;BME280;50639;53.270;7.956;2023-04-15T03:59:11;101096.19;;;4.89;86.29
64298;BME280;50639;53.270;7.956;2023-04-15T04:01:37;101090.88;;;4.89;86.30
64298;BME280;50639;53.270;7.956;2023-04-15T04:04:02;101089.44;;;4.95;86.09
64298;BME280;50639;53.270;7.956;2023-04-15T04:06:28;101085.59;;;4.89;86.35
64298;BME280;50639;53.270;7.956;2023-04-15T04:08:53;101082.06;;;4.98;86.39
64298;BME280;50639;53.270;7.956;2023-04-15T04:11:19;101083.81;;;5.07;85.90
64298;BME280;50639;53.270;7.956;2023-04-15T04:13:45;101084.06;;;5.14;86.71
64298;BME280;50639;53.270;7.956;2023-04-15T04:16:10;101085.13;;;5.21;85.95
64298;BME280;50639;53.270;7.956;2023-04-15T04:18:36;101090.28;;;5.22;86.21
64298;BME280;50639;53.270;7.956;2023-04-15T04:21:02;101094.59;;;5.23;86.42
64298;BME280;50639;53.270;7.956;2023-04-15T04:23:27;101091.94;;;5.23;86.48
64298;BME280;50639;53.270;7.956;2023-04-15T04:25:53;101089.66;;;5.28;86.08
64298;BME280;50639;53.270;7.956;2023-04-15T04:28:18;101091.19;;;5.31;85.77
64298;BME280;50639;53.270;7.956;2023-04-15T04:30:44;101091.59;;;5.36;85.50
64298;BME280;50639;53.270;7.956;2023-04-15T04:33:09;101095.38;;;5.34;86.17
64298;BME280;50639;53.270;7.956;2023-04-15T04:35:35;101096.28;;;5.42;86.00
64298;BME280;50639;53.270;7.956;2023-04-15T04:38:02;101096.97;;;5.44;85.74
64298;BME280;50639;53.270;7.956;2023-04-15T04:40:28;101103.41;;;5.59;85.37
64298;BME280;50639;53.270;7.956;2023-04-15T04:42:53;101101.81;;;5.66;84.96
64298;BME280;50639;53.270;7.956;2023-04-15T04:45:19;101103.63;;;5.66;86.05
64298;BME280;50639;53.270;7.956;2023-04-15T04:47:44;101104.53;;;5.75;85.85
64298;BME280;50639;53.270;7.956;2023-04-15T04:50:11;101099.91;;;5.77;85.45
64298;BME280;50639;53.270;7.956;2023-04-15T04:52:37;101102.28;;;5.80;86.08
64298;BME280;50639;53.270;7.956;2023-04-15T04:55:02;101104.69;;;5.91;86.37
64298;BME280;50639;53.270;7.956;2023-04-15T04:57:28;101102.78;;;6.01;85.87
64298;BME280;50639;53.270;7.956;2023-04-15T04:59:53;101100.75;;;6.13;85.10
64298;BME280;50639;53.270;7.956;2023-04-15T05:02:19;101113.66;;;6.16;85.17
64298;BME280;50639;53.270;7.956;2023-04-15T05:04:44;101110.09;;;6.25;85.09
64298;BME280;50639;53.270;7.956;2023-04-15T05:07:10;101117.25;;;6.24;84.97
64298;BME280;50639;53.270;7.956;2023-04-15T05:09:35;101121.78;;;6.32;85.12
64298;BME280;50639;53.270;7.956;2023-04-15T05:12:02;101124.94;;;6.35;84.93
64298;BME280;50639;53.270;7.956;2023-04-15T05:14:28;101125.13;;;6.42;85.09
64298;BME280;50639;53.270;7.956;2023-04-15T05:16:54;101129.78;;;6.40;85.27
64298;BME280;50639;53.270;7.956;2023-04-15T05:19:20;101136.91;;;6.39;85.15
64298;BME280;50639;53.270;7.956;2023-04-15T05:21:45;101140.44;;;6.48;85.48
64298;BME280;50639;53.270;7.956;2023-04-15T05:24:11;101127.88;;;6.50;85.21
64298;BME280;50639;53.270;7.956;2023-04-15T05:26:36;101134.50;;;6.54;84.89
64298;BME280;50639;53.270;7.956;2023-04-15T05:29:02;101130.88;;;6.55;85.34
64298;BME280;50639;53.270;7.956;2023-04-15T05:31:27;101134.50;;;6.54;84.23
64298;BME280;50639;53.270;7.956;2023-04-15T05:33:53;101128.41;;;6.62;84.27
64298;BME280;50639;53.270;7.956;2023-04-15T05:36:18;101135.91;;;6.66;84.69
64298;BME280;50639;53.270;7.956;2023-04-15T05:38:43;101141.13;;;6.76;84.89
64298;BME280;50639;53.270;7.956;2023-04-15T05:41:09;101145.94;;;6.80;83.62
64298;BME280;50639;53.270;7.956;2023-04-15T05:43:35;101152.09;;;6.81;83.82
64298;BME280;50639;53.270;7.956;2023-04-15T05:46:00;101155.91;;;6.87;84.33
64298;BME280;50639;53.270;7.956;2023-04-15T05:48:26;101147.94;;;6.87;83.88
64298;BME280;50639;53.270;7.956;2023-04-15T05:50:51;101144.53;;;6.94;83.86
64298;BME280;50639;53.270;7.956;2023-04-15T05:53:17;101169.25;;;6.95;83.60
64298;BME280;50639;53.270;7.956;2023-04-15T05:55:42;101170.06;;;6.95;83.65
64298;BME280;50639;53.270;7.956;2023-04-15T05:58:08;101169.56;;;6.92;84.05
64298;BME280;50639;53.270;7.956;2023-04-15T06:00:33;101159.78;;;6.92;83.91
64298;BME280;50639;53.270;7.956;2023-04-15T06:02:59;101157.63;;;6.96;84.38
64298;BME280;50639;53.270;7.956;2023-04-15T06:05:25;101171.75;;;6.96;83.73
64298;BME280;50639;53.270;7.956;2023-04-15T06:07:50;101177.56;;;7.00;84.68
64298;BME280;50639;53.270;7.956;2023-04-15T06:10:16;101171.63;;;7.06;84.32
64298;BME280;50639;53.270;7.956;2023-04-15T06:12:42;101178.09;;;7.03;84.22
64298;BME280;50639;53.270;7.956;2023-04-15T06:15:07;101178.25;;;7.02;84.78
64298;BME280;50639;53.270;7.956;2023-04-15T06:17:35;101176.78;;;7.07;85.09
64298;BME280;50639;53.270;7.956;2023-04-15T06:20:01;101181.97;;;7.17;84.63
64298;BME280;50639;53.270;7.956;2023-04-15T06:22:26;101185.16;;;7.21;84.74
64298;BME280;50639;53.270;7.956;2023-04-15T06:24:51;101181.31;;;7.23;84.42
64298;BME280;50639;53.270;7.956;2023-04-15T06:27:17;101191.34;;;7.29;84.33
64298;BME280;50639;53.270;7.956;2023-04-15T06:29:43;101184.88;;;7.40;84.19
64298;BME280;50639;53.270;7.956;2023-04-15T06:32:10;101189.88;;;7.43;84.45
64298;BME280;50639;53.270;7.956;2023-04-15T06:34:36;101182.59;;;7.53;84.60
64298;BME280;50639;53.270;7.956;2023-04-15T06:37:01;101198.59;;;7.69;84.23
64298;BME280;50639;53.270;7.956;2023-04-15T06:39:26;101192.13;;;7.72;84.01
64298;BME280;50639;53.270;7.956;2023-04-15T06:41:52;101191.13;;;7.65;84.18
64298;BME280;50639;53.270;7.956;2023-04-15T06:44:19;101191.16;;;7.81;83.94
64298;BME280;50639;53.270;7.956;2023-04-15T06:46:45;101203.44;;;7.74;84.06
64298;BME280;50639;53.270;7.956;2023-04-15T06:49:10;101196.13;;;7.84;84.09
64298;BME280;50639;53.270;7.956;2023-04-15T06:51:36;101190.81;;;7.92;83.52
64298;BME280;50639;53.270;7.956;2023-04-15T06:54:02;101187.84;;;7.87;83.42
64298;BME280;50639;53.270;7.956;2023-04-15T06:56:31;101192.50;;;7.93;84.24
64298;BME280;50639;53.270;7.956;2023-04-15T06:58:56;101197.16;;;7.91;84.37
64298;BME280;50639;53.270;7.956;2023-04-15T07:01:22;101203.31;;;7.91;83.53
64298;BME280;50639;53.270;7.956;2023-04-15T07:03:47;101192.84;;;7.90;84.55
64298;BME280;50639;53.270;7.956;2023-04-15T07:06:13;101198.66;;;8.10;84.10
64298;BME280;50639;53.270;7.956;2023-04-15T07:08:38;101199.34;;;8.12;83.90
64298;BME280;50639;53.270;7.956;2023-04-15T07:11:04;101198.16;;;8.06;84.00
64298;BME280;50639;53.270;7.956;2023-04-15T07:13:31;101201.34;;;8.18;84.11
64298;BME280;50639;53.270;7.956;2023-04-15T07:15:57;101206.84;;;8.16;83.86
64298;BME280;50639;53.270;7.956;2023-04-15T07:18:22;101208.50;;;8.17;84.05
64298;BME280;50639;53.270;7.956;2023-04-15T07:20:48;101212.47;;;8.21;83.61
64298;BME280;50639;53.270;7.956;2023-04-15T07:23:13;101203.38;;;8.32;83.89
64298;BME280;50639;53.270;7.956;2023-04-15T07:25:39;101210.81;;;8.20;84.63
64298;BME280;50639;53.270;7.956;2023-04-15T07:28:04;101216.81;;;8.30;83.76
64298;BME280;50639;53.270;7.956;2023-04-15T07:30:30;101219.63;;;8.29;83.87
64298;BME280;50639;53.270;7.956;2023-04-15T07:32:57;101207.69;;;8.33;84.41
64298;BME280;50639;53.270;7.956;2023-04-15T07:35:22;101225.31;;;8.26;83.30
64298;BME280;50639;53.270;7.956;2023-04-15T07:37:49;101217.34;;;8.34;83.49
64298;BME280;50639;53.270;7.956;2023-04-15T07:40:16;101220.63;;;8.20;84.01
64298;BME280;50639;53.270;7.956;2023-04-15T07:42:42;101219.66;;;8.37;83.77
64298;BME280;50639;53.270;7.956;2023-04-15T07:45:08;101237.59;;;8.27;83.53
64298;BME280;50639;53.270;7.956;2023-04-15T07:47:34;101229.59;;;8.11;83.58
64298;BME280;50639;53.270;7.956;2023-04-15T07:49:59;101234.91;;;8.11;83.45
64298;BME280;50639;53.270;7.956;2023-04-15T07:52:24;101233.44;;;8.16;83.34
64298;BME280;50639;53.270;7.956;2023-04-15T07:54:50;101239.41;;;8.18;83.39
64298;BME280;50639;53.270;7.956;2023-04-15T07:57:16;101238.75;;;8.08;83.59
64298;BME280;50639;53.270;7.956;2023-04-15T07:59:41;101247.72;;;8.07;84.56
64298;BME280;50639;53.270;7.956;2023-04-15T08:02:07;101240.91;;;8.13;84.39
64298;BME280;50639;53.270;7.956;2023-04-15T08:04:32;101244.06;;;8.08;84.40
64298;BME280;50639;53.270;7.956;2023-04-15T08:06:58;101252.38;;;8.05;84.64
64298;BME280;50639;53.270;7.956;2023-04-15T08:09:24;101245.06;;;8.07;84.58
64298;BME280;50639;53.270;7.956;2023-04-15T08:11:51;101240.06;;;8.12;84.90
64298;BME280;50639;53.270;7.956;2023-04-15T08:14:16;101247.06;;;8.21;85.34
64298;BME280;50639;53.270;7.956;2023-04-15T08:16:42;101241.75;;;8.21;85.33
64298;BME280;50639;53.270;7.956;2023-04-15T08:19:08;101244.56;;;8.20;85.17
64298;BME280;50639;53.270;7.956;2023-04-15T08:21:33;101248.06;;;8.20;85.10
64298;BME280;50639;53.270;7.956;2023-04-15T08:23:58;101248.75;;;8.22;85.19
64298;BME280;50639;53.270;7.956;2023-04-15T08:26:24;101240.44;;;8.25;84.82
64298;BME280;50639;53.270;7.956;2023-04-15T08:28:50;101244.28;;;8.31;85.55
64298;BME280;50639;53.270;7.956;2023-04-15T08:31:17;101247.94;;;8.46;85.36
64298;BME280;50639;53.270;7.956;2023-04-15T08:34:07;101239.47;;;8.51;85.36
64298;BME280;50639;53.270;7.956;2023-04-15T08:36:58;101239.81;;;8.40;84.59
64298;BME280;50639;53.270;7.956;2023-04-15T08:39:48;101238.09;;;8.22;85.39
64298;BME280;50639;53.270;7.956;2023-04-15T08:42:22;101243.47;;;8.39;85.90
64298;BME280;50639;53.270;7.956;2023-04-15T08:44:52;101247.13;;;8.54;85.26
64298;BME280;50639;53.270;7.956;2023-04-15T08:47:19;101247.94;;;8.54;85.22
64298;BME280;50639;53.270;7.956;2023-04-15T08:49:46;101248.63;;;8.40;85.75
64298;BME280;50639;53.270;7.956;2023-04-15T08:52:18;101258.72;;;8.28;84.97
64298;BME280;50639;53.270;7.956;2023-04-15T08:54:44;101253.13;;;8.40;85.04
64298;BME280;50639;53.270;7.956;2023-04-15T08:57:10;101258.06;;;8.26;85.53
64298;BME280;50639;53.270;7.956;2023-04-15T08:59:35;101260.41;;;8.38;85.50
64298;BME280;50639;53.270;7.956;2023-04-15T09:02:01;101266.75;;;8.45;85.82
64298;BME280;50639;53.270;7.956;2023-04-15T09:04:27;101261.09;;;8.40;85.40
64298;BME280;50639;53.270;7.956;2023-04-15T09:06:54;101259.44;;;8.47;84.98
64298;BME280;50639;53.270;7.956;2023-04-15T09:09:19;101255.78;;;8.40;85.35
64298;BME280;50639;53.270;7.956;2023-04-15T09:11:45;101261.94;;;8.40;85.08
64298;BME280;50639;53.270;7.956;2023-04-15T09:14:10;101276.09;;;8.49;84.79
64298;BME280;50639;53.270;7.956;2023-04-15T09:16:56;101262.94;;;8.39;85.37
64298;BME280;50639;53.270;7.956;2023-04-15T09:19:23;101271.91;;;8.38;85.12
64298;BME280;50639;53.270;7.956;2023-04-15T09:21:51;101264.59;;;8.40;85.86
64298;BME280;50639;53.270;7.956;2023-04-15T09:24:17;101269.75;;;8.34;85.59
64298;BME280;50639;53.270;7.956;2023-04-15T09:26:43;101277.34;;;8.28;85.31
64298;BME280;50639;53.270;7.956;2023-04-15T09:29:10;101277.19;;;8.30;85.68
64298;BME280;50639;53.270;7.956;2023-04-15T09:31:38;101284.06;;;8.33;85.65
64298;BME280;50639;53.270;7.956;2023-04-15T09:34:04;101285.00;;;8.23;85.43
64298;BME280;50639;53.270;7.956;2023-04-15T09:36:39;101290.47;;;8.22;85.88
64298;BME280;50639;53.270;7.956;2023-04-15T09:39:47;101296.97;;;8.27;85.88
64298;BME280;50639;53.270;7.956;2023-04-15T09:42:55;101303.97;;;8.28;85.84
64298;BME280;50639;53.270;7.956;2023-04-15T09:45:23;101304.63;;;8.22;85.78
64298;BME280;50639;53.270;7.956;2023-04-15T09:47:48;101303.16;;;8.36;85.45
64298;BME280;50639;53.270;7.956;2023-04-15T09:50:18;101310.94;;;8.29;85.63
64298;BME280;50639;53.270;7.956;2023-04-15T09:52:43;101309.63;;;8.25;85.88
64298;BME280;50639;53.270;7.956;2023-04-15T09:55:10;101306.03;;;8.35;85.89
64298;BME280;50639;53.270;7.956;2023-04-15T09:57:36;101311.50;;;8.33;86.28
64298;BME280;50639;53.270;7.956;2023-04-15T10:00:03;101299.88;;;8.42;85.01
64298;BME280;50639;53.270;7.956;2023-04-15T10:02:32;101307.03;;;8.42;85.63
64298;BME280;50639;53.270;7.956;2023-04-15T10:04:58;101311.69;;;8.40;85.54
64298;BME280;50639;53.270;7.956;2023-04-15T10:07:24;101320.66;;;8.47;85.61
64298;BME280;50639;53.270;7.956;2023-04-15T10:09:50;101311.38;;;8.59;85.60
64298;BME280;50639;53.270;7.956;2023-04-15T10:12:16;101302.06;;;8.79;85.75
64298;BME280;50639;53.270;7.956;2023-04-15T10:14:42;101307.19;;;8.64;85.26
64298;BME280;50639;53.270;7.956;2023-04-15T10:17:10;101308.03;;;8.73;84.90
64298;BME280;50639;53.270;7.956;2023-04-15T10:19:37;101307.72;;;8.60;85.11
64298;BME280;50639;53.270;7.956;2023-04-15T10:22:02;101314.34;;;8.56;84.57
64298;BME280;50639;53.270;7.956;2023-04-15T10:24:32;101312.84;;;8.53;85.52
64298;BME280;50639;53.270;7.956;2023-04-15T10:26:59;101311.22;;;8.68;85.57
64298;BME280;50639;53.270;7.956;2023-04-15T10:29:25;101328.34;;;8.66;85.02
64298;BME280;50639;53.270;7.956;2023-04-15T10:31:54;101309.53;;;8.59;84.86
64298;BME280;50639;53.270;7.956;2023-04-15T10:34:22;101320.88;;;8.61;85.90
64298;BME280;50639;53.270;7.956;2023-04-15T10:36:48;101320.50;;;8.48;85.26
64298;BME280;50639;53.270;7.956;2023-04-15T10:42:13;101320.03;;;8.53;85.19
64298;BME280;50639;53.270;7.956;2023-04-15T10:44:44;101310.84;;;8.47;85.47
64298;BME280;50639;53.270;7.956;2023-04-15T10:47:20;101312.22;;;8.67;85.58
64298;BME280;50639;53.270;7.956;2023-04-15T10:49:51;101310.69;;;8.73;85.84
64298;BME280;50639;53.270;7.956;2023-04-15T10:52:22;101319.34;;;8.83;85.11
64298;BME280;50639;53.270;7.956;2023-04-15T10:54:47;101315.38;;;8.87;84.93
64298;BME280;50639;53.270;7.956;2023-04-15T10:57:21;101316.19;;;8.96;85.16
64298;BME280;50639;53.270;7.956;2023-04-15T11:05:03;101324.53;;;8.77;85.41
64298;BME280;50639;53.270;7.956;2023-04-15T11:12:44;101327.19;;;8.68;84.83
64298;BME280;50639;53.270;7.956;2023-04-15T11:15:29;101327.03;;;8.86;85.04
64298;BME280;50639;53.270;7.956;2023-04-15T11:17:57;101333.50;;;8.76;85.65
64298;BME280;50639;53.270;7.956;2023-04-15T11:20:23;101335.66;;;8.64;84.88
64298;BME280;50639;53.270;7.956;2023-04-15T11:22:50;101336.50;;;8.56;85.27
64298;BME280;50639;53.270;7.956;2023-04-15T11:25:27;101345.31;;;8.65;85.81
64298;BME280;50639;53.270;7.956;2023-04-15T11:27:53;101329.84;;;8.68;84.69
64298;BME280;50639;53.270;7.956;2023-04-15T11:30:21;101345.16;;;8.58;84.39
64298;BME280;50639;53.270;7.956;2023-04-15T11:32:56;101345.47;;;8.47;85.64
64298;BME280;50639;53.270;7.956;2023-04-15T11:35:22;101344.28;;;8.42;85.67
64298;BME280;50639;53.270;7.956;2023-04-15T11:37:48;101349.63;;;8.50;86.08
64298;BME280;50639;53.270;7.956;2023-04-15T11:40:15;101368.09;;;8.43;85.66
64298;BME280;50639;53.270;7.956;2023-04-15T11:42:44;101355.28;;;8.47;86.59
64298;BME280;50639;53.270;7.956;2023-04-15T11:45:13;101368.56;;;8.39;85.71
64298;BME280;50639;53.270;7.956;2023-04-15T11:47:42;101364.25;;;8.46;86.32
64298;BME280;50639;53.270;7.956;2023-04-15T11:52:57;101368.88;;;8.36;87.11
64298;BME280;50639;53.270;7.956;2023-04-15T11:55:24;101360.19;;;8.25;86.35
64298;BME280;50639;53.270;7.956;2023-04-15T11:58:04;101373.31;;;8.27;86.38
64298;BME280;50639;53.270;7.956;2023-04-15T12:01:00;101397.13;;;8.28;86.85
64298;BME280;50639;53.270;7.956;2023-04-15T12:03:51;101376.38;;;8.32;86.64
64298;BME280;50639;53.270;7.956;2023-04-15T12:06:42;101378.91;;;8.42;86.62
64298;BME280;50639;53.270;7.956;2023-04-15T12:09:12;101385.38;;;8.47;86.70
64298;BME280;50639;53.270;7.956;2023-04-15T12:11:39;101381.88;;;8.39;86.24
64298;BME280;50639;53.270;7.956;2023-04-15T12:14:10;101383.22;;;8.43;86.75
64298;BME280;50639;53.270;7.956;2023-04-15T12:16:42;101385.28;;;8.73;85.96
64298;BME280;50639;53.270;7.956;2023-04-15T12:19:10;101392.72;;;8.53;85.44
64298;BME280;50639;53.270;7.956;2023-04-15T12:21:38;101388.06;;;8.55;85.76
64298;BME280;50639;53.270;7.956;2023-04-15T12:24:07;101387.09;;;8.64;85.06
64298;BME280;50639;53.270;7.956;2023-04-15T12:26:47;101395.78;;;8.75;85.58
64298;BME280;50639;53.270;7.956;2023-04-15T12:29:14;101399.09;;;8.77;85.92
64298;BME280;50639;53.270;7.956;2023-04-15T12:31:54;101397.41;;;8.59;85.89
64298;BME280;50639;53.270;7.956;2023-04-15T12:34:34;101400.09;;;8.76;86.01
64298;BME280;50639;53.270;7.956;2023-04-15T12:37:03;101395.78;;;8.75;85.67
64298;BME280;50639;53.270;7.956;2023-04-15T12:39:30;101406.09;;;8.61;86.17
64298;BME280;50639;53.270;7.956;2023-04-15T12:41:57;101411.06;;;8.64;85.79
64298;BME280;50639;53.270;7.956;2023-04-15T12:44:26;101410.88;;;8.58;86.03
64298;BME280;50639;53.270;7.956;2023-04-15T12:46:52;101416.22;;;8.58;86.58
64298;BME280;50639;53.270;7.956;2023-04-15T12:49:18;101411.72;;;8.58;86.47
64298;BME280;50639;53.270;7.956;2023-04-15T12:51:49;101422.53;;;8.65;86.61
64298;BME280;50639;53.270;7.956;2023-04-15T12:54:15;101426.72;;;8.67;86.32
64298;BME280;50639;53.270;7.956;2023-04-15T12:56:42;101437.84;;;8.71;85.51
64298;BME280;50639;53.270;7.956;2023-04-15T12:59:08;101422.56;;;8.73;86.49
64298;BME280;50639;53.270;7.956;2023-04-15T13:01:34;101435.06;;;8.89;85.26
64298;BME280;50639;53.270;7.956;2023-04-15T13:04:00;101426.91;;;8.74;86.17
64298;BME280;50639;53.270;7.956;2023-04-15T13:06:26;101433.22;;;8.73;86.49
64298;BME280;50639;53.270;7.956;2023-04-15T13:08:53;101440.22;;;8.82;87.32
64298;BME280;50639;53.270;7.956;2023-04-15T13:11:21;101438.56;;;8.81;86.95
64298;BME280;50639;53.270;7.956;2023-04-15T13:13:46;101437.56;;;8.82;86.80
64298;BME280;50639;53.270;7.956;2023-04-15T13:16:12;101434.91;;;8.82;87.06
64298;BME280;50639;53.270;7.956;2023-04-15T13:18:37;101444.69;;;8.74;87.60